Time;durP1;ratioP1;P1;durP2;ratioP2;P2;SDS_P1;SDS_P2;PMS_P1;PMS_P2;Temp;Humidity;BMP_temperature;BMP_pressure;BME280_temperature;BME280_humidity;BME280_pressure;Samples;Min_cycle;Max_cycle;Signal;HPM_P1;HPM_P2
2022/07/10 00:00:29;;;;;;;3.38;0.50;;;13.40;83.00;;;;;;5040125;28;20038;-69
2022/07/10 00:02:55;;;;;;;5.80;0.82;;;13.40;83.00;;;;;;5048019;28;20021;-69
2022/07/10 00:05:21;;;;;;;1.70;0.70;;;13.50;83.60;;;;;;5047519;28;20036;-69
2022/07/10 00:07:47;;;;;;;3.75;0.80;;;13.20;85.50;;;;;;5048308;28;20041;-69
2022/07/10 00:10:13;;;;;;;5.55;0.80;;;13.10;86.60;;;;;;5042880;28;20036;-69
2022/07/10 00:12:38;;;;;;;5.45;0.70;;;12.90;87.20;;;;;;5051166;28;20029;-69
2022/07/10 00:15:05;;;;;;;3.38;0.52;;;12.90;87.30;;;;;;5043480;28;20156;-69
2022/07/10 00:17:31;;;;;;;3.40;0.70;;;12.80;87.40;;;;;;5043388;28;20041;-69
2022/07/10 00:19:57;;;;;;;2.92;0.60;;;12.70;87.60;;;;;;5047289;28;20049;-69
2022/07/10 00:22:22;;;;;;;5.03;0.90;;;12.80;87.80;;;;;;5048108;28;20103;-69
2022/07/10 00:24:50;;;;;;;2.45;0.70;;;12.70;88.20;;;;;;5045153;28;20040;-69
2022/07/10 00:27:16;;;;;;;8.93;0.70;;;12.80;88.20;;;;;;5040642;28;20029;-69
2022/07/10 00:29:41;;;;;;;4.72;0.60;;;12.80;88.30;;;;;;5042505;28;20029;-69
2022/07/10 00:32:07;;;;;;;5.82;0.98;;;12.70;88.50;;;;;;5046193;28;20112;-69
2022/07/10 00:34:33;;;;;;;5.28;0.90;;;12.70;88.60;;;;;;5045725;28;20021;-69
2022/07/10 00:36:58;;;;;;;5.93;0.60;;;12.80;88.70;;;;;;5048712;28;20078;-69
2022/07/10 00:39:24;;;;;;;4.55;0.60;;;12.80;88.80;;;;;;5047379;28;20090;-69
2022/07/10 00:41:49;;;;;;;2.40;0.82;;;12.70;88.70;;;;;;5047111;28;20425;-69
2022/07/10 00:44:15;;;;;;;3.45;0.60;;;12.70;89.20;;;;;;5041198;28;20025;-69
2022/07/10 00:46:40;;;;;;;4.60;0.60;;;12.70;89.40;;;;;;5048245;28;20043;-69
2022/07/10 00:49:06;;;;;;;3.53;0.80;;;12.60;88.80;;;;;;5043470;28;20051;-69
2022/07/10 00:51:33;;;;;;;1.30;0.60;;;12.70;88.90;;;;;;5048676;28;20029;-69
2022/07/10 00:54:00;;;;;;;5.55;0.70;;;12.80;88.70;;;;;;5044580;28;20091;-69
2022/07/10 00:56:27;;;;;;;3.15;0.55;;;12.80;87.90;;;;;;5041555;28;20033;-69
2022/07/10 00:58:53;;;;;;;4.03;0.82;;;12.70;87.60;;;;;;5040536;28;20025;-69
2022/07/10 01:01:20;;;;;;;1.45;0.57;;;12.80;87.50;;;;;;5048494;28;20033;-69
2022/07/10 01:03:46;;;;;;;4.78;0.80;;;12.70;87.60;;;;;;5045205;28;20120;-69
2022/07/10 01:06:14;;;;;;;3.03;1.00;;;12.80;87.50;;;;;;5048146;28;20090;-69
2022/07/10 01:08:39;;;;;;;1.92;0.60;;;12.80;87.40;;;;;;5044188;28;20029;-69
2022/07/10 01:11:05;;;;;;;3.83;0.82;;;12.80;87.20;;;;;;5046499;28;20488;-69
2022/07/10 01:13:31;;;;;;;1.55;0.52;;;12.90;87.10;;;;;;5043139;28;20037;-69
2022/07/10 01:15:57;;;;;;;3.47;0.63;;;12.90;86.80;;;;;;5046660;28;20380;-69
2022/07/10 01:18:22;;;;;;;6.07;0.70;;;12.90;86.70;;;;;;5044648;28;20063;-69
2022/07/10 01:20:53;;;;;;;3.22;0.70;;;12.90;86.70;;;;;;5048102;28;20045;-69
2022/07/10 01:23:18;;;;;;;2.85;0.63;;;12.90;86.70;;;;;;5049782;28;20492;-69
2022/07/10 01:25:44;;;;;;;2.67;0.68;;;12.90;86.60;;;;;;5044058;28;20112;-69
2022/07/10 01:28:09;;;;;;;4.60;0.73;;;12.90;86.60;;;;;;5045157;28;20111;-69
2022/07/10 01:30:35;;;;;;;4.15;0.82;;;13.00;86.40;;;;;;5047310;28;20471;-69
2022/07/10 01:33:00;;;;;;;5.28;0.90;;;13.00;86.50;;;;;;5046963;28;20028;-69
2022/07/10 01:35:26;;;;;;;4.18;0.45;;;12.90;86.50;;;;;;5041506;28;20033;-69
2022/07/10 01:37:51;;;;;;;4.43;0.70;;;12.90;86.70;;;;;;5046484;28;20029;-69
2022/07/10 01:40:17;;;;;;;4.53;0.70;;;12.90;86.60;;;;;;5044540;28;20450;-69
2022/07/10 01:42:43;;;;;;;3.85;0.70;;;12.90;86.80;;;;;;5047008;28;20048;-69
2022/07/10 01:45:09;;;;;;;6.18;1.25;;;12.90;86.80;;;;;;5040799;28;20025;-69
2022/07/10 01:47:35;;;;;;;1.42;0.57;;;12.90;86.80;;;;;;5034171;28;20325;-69
2022/07/10 01:50:00;;;;;;;3.22;0.52;;;12.90;86.80;;;;;;5039308;28;20036;-69
2022/07/10 01:52:26;;;;;;;4.90;0.70;;;12.90;86.70;;;;;;5044167;28;20037;-69
2022/07/10 01:54:52;;;;;;;5.93;0.98;;;12.90;86.70;;;;;;5041513;28;20162;-69
2022/07/10 01:57:17;;;;;;;6.18;1.00;;;12.90;86.70;;;;;;5043769;28;20526;-69
2022/07/10 01:59:43;;;;;;;3.30;0.65;;;12.80;86.60;;;;;;5042045;28;20597;-69
2022/07/10 02:02:09;;;;;;;5.82;0.90;;;12.90;86.60;;;;;;5047220;28;20376;-69
2022/07/10 02:04:41;;;;;;;2.25;0.85;;;12.90;86.50;;;;;;5042269;28;20079;-69
2022/07/10 02:07:07;;;;;;;4.55;0.82;;;12.90;86.50;;;;;;5046979;28;20461;-69
2022/07/10 02:09:33;;;;;;;7.45;0.75;;;12.90;86.40;;;;;;5046396;28;20029;-69
2022/07/10 02:11:58;;;;;;;6.60;0.85;;;13.00;86.40;;;;;;5035721;28;20024;-69
2022/07/10 02:14:24;;;;;;;4.57;0.75;;;12.90;86.00;;;;;;5047294;28;20082;-69
2022/07/10 02:16:49;;;;;;;8.18;1.20;;;12.90;86.10;;;;;;5047822;28;20029;-69
2022/07/10 02:19:15;;;;;;;6.10;1.02;;;12.90;86.00;;;;;;5045731;28;20059;-69
2022/07/10 02:21:40;;;;;;;5.57;0.82;;;12.90;86.00;;;;;;5039617;28;20033;-69
2022/07/10 02:24:06;;;;;;;8.30;1.60;;;12.90;85.80;;;;;;5044905;28;20065;-69
2022/07/10 02:26:31;;;;;;;4.60;0.88;;;12.90;85.60;;;;;;5044209;28;20504;-69
2022/07/10 02:28:57;;;;;;;3.83;1.02;;;12.90;85.60;;;;;;5043512;28;20044;-69
2022/07/10 02:31:22;;;;;;;8.15;1.02;;;13.00;85.40;;;;;;5043337;28;20449;-69
2022/07/10 02:33:47;;;;;;;5.72;1.10;;;12.80;85.40;;;;;;5043489;28;20029;-69
2022/07/10 02:36:13;;;;;;;5.15;1.00;;;12.90;85.50;;;;;;5042630;28;20208;-69
2022/07/10 02:38:38;;;;;;;6.32;0.80;;;12.90;85.50;;;;;;5045482;28;20040;-69
2022/07/10 02:41:04;;;;;;;10.30;1.15;;;12.80;85.80;;;;;;5043571;28;20425;-69
2022/07/10 02:43:30;;;;;;;8.10;1.10;;;12.90;85.80;;;;;;5043031;28;20166;-69
2022/07/10 02:45:55;;;;;;;5.97;0.90;;;12.80;85.90;;;;;;5046215;28;20037;-69
2022/07/10 02:48:21;;;;;;;7.57;1.15;;;12.80;86.10;;;;;;5047292;28;20066;-69
2022/07/10 02:50:46;;;;;;;4.35;0.77;;;12.90;86.10;;;;;;5042991;28;20765;-69
2022/07/10 02:53:12;;;;;;;5.38;0.90;;;12.90;86.10;;;;;;5035423;28;20083;-69
2022/07/10 02:55:37;;;;;;;4.53;1.05;;;12.90;86.30;;;;;;5042035;28;20120;-69
2022/07/10 02:58:03;;;;;;;3.17;0.80;;;12.80;85.90;;;;;;5038478;28;20050;-69
2022/07/10 03:00:28;;;;;;;8.50;1.20;;;12.90;85.90;;;;;;5046326;28;20033;-69
2022/07/10 03:02:55;;;;;;;9.52;1.30;;;12.90;85.60;;;;;;5049986;28;20041;-69
2022/07/10 03:05:21;;;;;;;5.47;1.20;;;12.90;85.50;;;;;;5051012;28;20055;-69
2022/07/10 03:07:46;;;;;;;4.63;1.00;;;12.80;85.70;;;;;;5041641;28;20033;-69
2022/07/10 03:10:12;;;;;;;5.05;1.25;;;12.80;85.70;;;;;;5042406;28;20044;-69
2022/07/10 03:12:37;;;;;;;4.70;0.95;;;12.90;85.60;;;;;;5049858;28;20454;-69
2022/07/10 03:15:05;;;;;;;12.10;1.27;;;12.90;85.40;;;;;;5042309;28;20033;-69
2022/07/10 03:17:30;;;;;;;5.40;0.90;;;12.90;85.30;;;;;;5048211;28;20039;-69
2022/07/10 03:19:56;;;;;;;3.53;1.02;;;12.90;85.30;;;;;;5049131;28;20467;-69
2022/07/10 03:22:21;;;;;;;3.85;1.13;;;13.00;85.10;;;;;;5046587;28;20528;-69
2022/07/10 03:24:47;;;;;;;7.57;1.08;;;12.90;85.10;;;;;;5045058;28;20033;-69
2022/07/10 03:27:13;;;;;;;4.63;1.15;;;13.00;85.20;;;;;;5045565;28;20032;-69
2022/07/10 03:29:40;;;;;;;7.65;1.25;;;12.90;85.10;;;;;;5043118;28;20109;-69
2022/07/10 03:32:06;;;;;;;5.85;1.08;;;12.90;84.90;;;;;;5040916;28;20021;-69
2022/07/10 03:34:33;;;;;;;6.28;1.23;;;13.00;84.60;;;;;;5047770;28;20036;-69
2022/07/10 03:37:00;;;;;;;5.15;1.10;;;13.00;84.30;;;;;;5046672;28;20032;-69
2022/07/10 03:39:26;;;;;;;4.50;1.13;;;13.00;84.40;;;;;;5047232;28;20377;-69
2022/07/10 03:41:51;;;;;;;6.25;1.10;;;13.00;84.30;;;;;;5045630;28;20473;-69
2022/07/10 03:44:17;;;;;;;4.47;1.08;;;13.10;84.10;;;;;;5039120;28;20037;-69
2022/07/10 03:46:42;;;;;;;7.38;1.10;;;13.10;84.00;;;;;;5040927;28;20472;-69
2022/07/10 03:49:08;;;;;;;7.35;1.50;;;13.10;84.10;;;;;;5049051;28;20039;-69
2022/07/10 03:51:33;;;;;;;6.07;1.10;;;13.20;83.90;;;;;;5048240;28;20123;-69
2022/07/10 03:53:59;;;;;;;7.75;1.23;;;13.10;83.60;;;;;;5042207;28;20040;-69
2022/07/10 03:59:09;;;;;;;8.63;1.60;;;13.10;83.50;;;;;;5046395;28;20383;-69
2022/07/10 04:01:34;;;;;;;8.77;1.40;;;13.10;83.90;;;;;;5047668;28;20155;-69
2022/07/10 04:04:00;;;;;;;8.88;1.35;;;13.10;83.90;;;;;;5047362;28;20107;-69
2022/07/10 04:06:25;;;;;;;12.07;1.95;;;13.20;83.80;;;;;;5047240;28;20487;-69
2022/07/10 04:08:51;;;;;;;4.32;1.10;;;13.20;83.60;;;;;;5039228;28;20112;-69
2022/07/10 04:11:17;;;;;;;8.52;1.73;;;13.10;83.60;;;;;;5046335;28;20133;-69
2022/07/10 04:13:42;;;;;;;10.70;1.20;;;13.10;83.80;;;;;;5039584;28;20367;-69
2022/07/10 04:16:12;;;;;;;6.72;1.45;;;13.10;83.90;;;;;;5040567;28;20040;-69
2022/07/10 04:18:41;;;;;;;5.40;1.15;;;13.20;83.90;;;;;;5045307;28;20060;-67
2022/07/10 04:21:07;;;;;;;7.10;1.67;;;13.20;84.00;;;;;;5043658;28;20075;-67
2022/07/10 04:23:33;;;;;;;6.95;1.35;;;13.20;84.10;;;;;;5044140;28;20122;-67
2022/07/10 04:25:59;;;;;;;8.43;1.73;;;13.20;84.20;;;;;;5033414;28;20021;-67
2022/07/10 04:28:25;;;;;;;11.00;2.15;;;13.30;83.90;;;;;;5046354;28;20033;-67
2022/07/10 04:30:51;;;;;;;5.80;1.38;;;13.50;83.70;;;;;;5040364;28;20036;-67
2022/07/10 04:33:16;;;;;;;6.97;1.63;;;13.50;83.60;;;;;;5046949;28;20064;-67
2022/07/10 04:35:42;;;;;;;10.77;1.88;;;13.60;83.30;;;;;;5046060;28;20103;-67
2022/07/10 04:38:08;;;;;;;8.98;2.10;;;13.70;83.10;;;;;;5039354;28;20132;-67
2022/07/10 04:40:33;;;;;;;13.27;1.65;;;13.60;83.20;;;;;;5045230;28;20033;-67
2022/07/10 04:42:59;;;;;;;10.65;1.65;;;13.60;83.30;;;;;;5040425;28;20396;-68
2022/07/10 04:45:24;;;;;;;6.72;2.00;;;13.50;83.50;;;;;;5042855;28;20114;-67
2022/07/10 04:47:50;;;;;;;8.25;1.90;;;13.50;83.50;;;;;;5050231;28;20112;-67
2022/07/10 04:50:15;;;;;;;7.47;2.08;;;13.50;83.60;;;;;;5044740;28;20040;-67
2022/07/10 04:52:41;;;;;;;7.00;1.65;;;13.50;83.80;;;;;;5044457;28;20039;-68
2022/07/10 04:55:07;;;;;;;8.88;1.73;;;13.50;83.70;;;;;;5036154;28;20033;-68
2022/07/10 04:57:32;;;;;;;10.02;2.03;;;13.50;83.80;;;;;;5048084;28;20075;-67
2022/07/10 04:59:58;;;;;;;14.18;2.25;;;13.50;83.70;;;;;;5040997;28;20032;-67
2022/07/10 05:02:23;;;;;;;9.70;1.77;;;13.50;83.40;;;;;;5046770;28;20032;-67
2022/07/10 05:04:49;;;;;;;8.77;2.25;;;13.50;83.50;;;;;;5046505;28;20041;-67
2022/07/10 05:07:14;;;;;;;7.38;1.52;;;13.60;83.40;;;;;;5048285;28;20094;-68
2022/07/10 05:09:40;;;;;;;8.82;1.92;;;13.60;83.20;;;;;;5046614;28;20033;-67
2022/07/10 05:12:06;;;;;;;7.80;1.60;;;13.70;83.10;;;;;;5043405;28;20087;-67
2022/07/10 05:14:32;;;;;;;7.68;1.60;;;13.70;82.70;;;;;;5042951;28;20064;-67
2022/07/10 05:16:58;;;;;;;17.60;2.17;;;13.80;82.50;;;;;;5044530;28;20047;-67
2022/07/10 05:19:23;;;;;;;5.93;1.80;;;13.80;82.80;;;;;;5030535;28;20556;-67
2022/07/10 05:21:49;;;;;;;7.38;2.00;;;14.00;82.30;;;;;;5041077;28;20330;-67
2022/07/10 05:24:15;;;;;;;8.85;2.15;;;14.00;82.00;;;;;;5045987;28;20051;-67
2022/07/10 05:26:40;;;;;;;13.80;2.03;;;14.10;81.80;;;;;;5043231;28;20033;-67
2022/07/10 05:29:06;;;;;;;10.02;2.05;;;14.10;81.00;;;;;;5037456;28;20414;-66
2022/07/10 05:31:31;;;;;;;11.70;1.83;;;14.10;80.10;;;;;;5044733;28;20036;-66
2022/07/10 05:33:57;;;;;;;7.60;1.75;;;14.30;78.80;;;;;;5044783;28;20056;-66
2022/07/10 05:36:22;;;;;;;11.88;2.17;;;14.50;79.00;;;;;;5047641;28;20060;-66
2022/07/10 05:38:48;;;;;;;6.57;1.90;;;14.70;77.00;;;;;;5046088;28;20079;-66
2022/07/10 05:41:13;;;;;;;8.57;1.73;;;14.70;76.90;;;;;;5043494;28;20048;-66
2022/07/10 05:43:39;;;;;;;11.98;2.10;;;14.80;76.60;;;;;;5038214;28;20102;-66
2022/07/10 05:46:05;;;;;;;8.38;1.70;;;15.10;76.70;;;;;;5043579;28;20028;-66
2022/07/10 05:48:31;;;;;;;9.13;2.13;;;15.20;76.20;;;;;;5044962;28;20025;-66
2022/07/10 05:50:56;;;;;;;14.27;2.20;;;15.40;76.20;;;;;;5047165;28;20036;-66
2022/07/10 05:53:22;;;;;;;10.75;2.03;;;15.40;75.30;;;;;;5047590;28;20029;-66
2022/07/10 05:55:48;;;;;;;8.85;1.60;;;15.40;75.90;;;;;;5038071;28;20033;-66
2022/07/10 05:58:14;;;;;;;11.60;1.92;;;15.50;75.60;;;;;;5043335;28;20029;-66
2022/07/10 06:00:39;;;;;;;11.70;1.95;;;15.40;74.90;;;;;;5041668;28;20056;-66
2022/07/10 06:03:05;;;;;;;9.45;2.20;;;15.40;76.00;;;;;;5045134;28;20108;-66
2022/07/10 06:05:31;;;;;;;10.05;2.03;;;15.30;75.60;;;;;;5046771;28;20040;-66
2022/07/10 06:07:56;;;;;;;12.00;2.08;;;15.10;76.20;;;;;;5038635;28;20087;-67
2022/07/10 06:10:22;;;;;;;6.72;1.92;;;15.10;77.00;;;;;;5037883;28;20124;-66
2022/07/10 06:12:47;;;;;;;7.85;2.10;;;15.00;77.10;;;;;;5039853;28;20033;-66
2022/07/10 06:15:13;;;;;;;8.95;1.65;;;14.90;75.50;;;;;;5044686;28;20041;-66
2022/07/10 06:17:38;;;;;;;9.95;1.73;;;14.90;75.40;;;;;;5045233;28;20039;-66
2022/07/10 06:20:04;;;;;;;10.35;2.20;;;15.00;75.70;;;;;;5038405;28;20084;-66
2022/07/10 06:22:30;;;;;;;10.68;2.00;;;15.10;75.50;;;;;;5043589;28;20473;-66
2022/07/10 06:25:00;;;;;;;10.40;1.98;;;15.30;75.10;;;;;;5041259;28;20382;-66
2022/07/10 06:27:26;;;;;;;11.60;2.22;;;15.40;73.70;;;;;;5042196;28;20068;-66
2022/07/10 06:29:51;;;;;;;7.45;1.63;;;15.40;74.00;;;;;;5036489;28;20175;-66
2022/07/10 06:32:17;;;;;;;8.82;1.77;;;15.30;72.60;;;;;;5044515;28;20072;-66
2022/07/10 06:34:43;;;;;;;10.27;1.63;;;15.30;73.20;;;;;;5045755;28;20033;-66
2022/07/10 06:37:08;;;;;;;4.55;1.50;;;15.40;72.40;;;;;;5049052;28;20032;-66
2022/07/10 06:39:37;;;;;;;8.68;1.85;;;15.70;70.70;;;;;;5042138;28;20106;-66
2022/07/10 06:42:03;;;;;;;6.50;1.55;;;15.70;70.80;;;;;;5047963;28;20115;-66
2022/07/10 06:44:29;;;;;;;7.68;1.98;;;16.10;70.30;;;;;;5043928;28;20033;-66
2022/07/10 06:49:40;;;;;;;11.32;1.77;;;15.80;69.70;;;;;;5042162;28;20133;-66
2022/07/10 06:52:06;;;;;;;7.93;1.83;;;15.70;70.90;;;;;;5050858;28;20025;-66
2022/07/10 06:54:32;;;;;;;9.90;1.90;;;15.70;70.80;;;;;;5047873;28;20068;-66
2022/07/10 06:56:58;;;;;;;10.60;1.85;;;15.50;71.90;;;;;;5044919;28;20457;-66
2022/07/10 06:59:23;;;;;;;9.23;1.83;;;15.40;72.80;;;;;;5038959;28;20132;-66
2022/07/10 07:01:49;;;;;;;11.88;2.10;;;15.50;72.40;;;;;;5046882;28;20033;-66
2022/07/10 07:04:14;;;;;;;8.57;1.88;;;15.60;72.90;;;;;;5049429;28;20084;-66
2022/07/10 07:06:40;;;;;;;12.82;2.10;;;15.60;73.40;;;;;;5046606;28;20083;-66
2022/07/10 07:09:06;;;;;;;8.25;1.60;;;15.70;74.10;;;;;;5043128;28;20112;-66
2022/07/10 07:11:31;;;;;;;14.57;1.98;;;16.20;73.70;;;;;;5047363;28;20055;-66
2022/07/10 07:13:56;;;;;;;8.45;2.03;;;16.00;72.80;;;;;;5044428;28;20043;-66
2022/07/10 07:16:37;;;;;;;10.98;2.20;;;16.10;72.90;;;;;;5043907;28;20059;-66
2022/07/10 07:19:04;;;;;;;13.50;1.92;;;16.20;72.70;;;;;;5045684;28;20080;-66
2022/07/10 07:24:20;;;;;;;9.40;2.08;;;16.50;71.00;;;;;;5048028;28;20114;-66
2022/07/10 07:26:47;;;;;;;9.80;1.60;;;16.50;69.00;;;;;;5046686;28;20033;-66
2022/07/10 07:29:13;;;;;;;12.20;2.28;;;16.40;70.20;;;;;;5044140;28;20028;-66
2022/07/10 07:31:39;;;;;;;8.52;1.90;;;16.60;68.90;;;;;;5044558;28;20021;-66
2022/07/10 07:34:05;;;;;;;11.40;2.08;;;16.50;69.70;;;;;;5048836;28;20047;-66
2022/07/10 07:36:31;;;;;;;13.23;2.10;;;16.80;68.00;;;;;;5048175;28;20045;-66
2022/07/10 07:38:56;;;;;;;9.65;2.00;;;17.10;68.00;;;;;;5038801;28;20039;-66
2022/07/10 07:41:22;;;;;;;9.38;2.10;;;17.10;67.90;;;;;;5040392;28;20132;-66
2022/07/10 07:43:48;;;;;;;9.32;2.10;;;16.80;67.20;;;;;;5046668;28;20055;-66
2022/07/10 07:46:14;;;;;;;12.07;1.90;;;16.50;69.70;;;;;;5048969;28;20033;-66
2022/07/10 07:48:40;;;;;;;10.00;2.03;;;16.30;70.10;;;;;;5049244;28;20071;-66
2022/07/10 07:51:05;;;;;;;11.55;2.30;;;16.10;71.50;;;;;;5047575;28;20033;-67
2022/07/10 07:53:31;;;;;;;7.63;1.80;;;16.00;72.50;;;;;;5039615;28;20048;-66
2022/07/10 07:55:56;;;;;;;14.40;2.55;;;16.00;73.90;;;;;;5042218;28;20465;-66
2022/07/10 07:58:22;;;;;;;15.27;2.28;;;16.40;74.10;;;;;;5043849;28;20029;-66
2022/07/10 08:00:47;;;;;;;11.90;2.40;;;16.50;73.90;;;;;;5044287;28;20079;-66
2022/07/10 08:03:13;;;;;;;11.15;2.78;;;16.90;72.70;;;;;;5049312;28;20025;-67
2022/07/10 08:05:38;;;;;;;12.23;2.15;;;17.40;71.70;;;;;;5049039;28;20073;-66
2022/07/10 08:08:08;;;;;;;10.75;2.38;;;17.50;68.50;;;;;;5044806;28;20229;-66
2022/07/10 08:10:34;;;;;;;7.75;2.20;;;16.90;68.70;;;;;;5037054;28;20036;-66
2022/07/10 08:13:00;;;;;;;10.90;2.03;;;16.90;68.00;;;;;;5042198;28;20114;-67
2022/07/10 08:15:26;;;;;;;14.70;2.30;;;16.90;67.70;;;;;;5038772;28;20051;-66
2022/07/10 08:17:55;;;;;;;13.38;2.05;;;17.20;67.60;;;;;;5044748;28;20083;-66
2022/07/10 08:20:21;;;;;;;10.18;2.53;;;17.00;67.90;;;;;;5046961;28;20048;-66
2022/07/10 08:22:48;;;;;;;11.85;2.15;;;16.90;69.10;;;;;;5047663;28;20036;-66
2022/07/10 08:25:14;;;;;;;8.48;2.10;;;16.70;69.10;;;;;;5043099;28;20159;-66
2022/07/10 08:27:39;;;;;;;7.95;2.00;;;16.70;70.20;;;;;;5048355;28;20094;-66
2022/07/10 08:30:06;;;;;;;8.35;1.83;;;16.70;69.50;;;;;;5041223;28;20041;-66
2022/07/10 08:32:32;;;;;;;9.50;1.63;;;17.30;68.50;;;;;;5047048;28;20120;-66
2022/07/10 08:34:59;;;;;;;11.77;2.50;;;17.50;64.70;;;;;;5033756;28;20437;-66
2022/07/10 08:37:24;;;;;;;10.32;1.60;;;17.90;63.10;;;;;;5044922;28;20419;-66
2022/07/10 08:39:50;;;;;;;9.82;2.03;;;18.20;63.50;;;;;;5039890;28;20033;-66
2022/07/10 08:42:17;;;;;;;6.43;1.67;;;17.90;61.40;;;;;;5040098;28;20109;-66
2022/07/10 08:44:43;;;;;;;10.88;1.67;;;18.20;62.70;;;;;;5039573;28;20029;-66
2022/07/10 08:47:11;;;;;;;10.43;1.83;;;17.80;59.30;;;;;;5045803;28;20037;-67
2022/07/10 08:49:36;;;;;;;12.05;1.70;;;17.20;60.60;;;;;;5040775;28;20108;-66
2022/07/10 08:52:08;;;;;;;10.18;1.55;;;17.50;60.90;;;;;;5046177;28;20095;-68
2022/07/10 08:54:35;;;;;;;10.15;1.90;;;17.80;57.40;;;;;;5039792;28;20053;-67
2022/07/10 08:57:03;;;;;;;9.05;1.70;;;18.30;59.00;;;;;;5043422;28;20077;-66
2022/07/10 08:59:29;;;;;;;6.85;1.58;;;19.00;56.60;;;;;;5047268;28;20017;-67
2022/07/10 09:01:55;;;;;;;8.02;1.65;;;18.60;56.70;;;;;;5047866;28;20071;-66
2022/07/10 09:04:22;;;;;;;4.03;1.00;;;18.00;55.80;;;;;;5046457;28;20401;-67
2022/07/10 09:06:48;;;;;;;7.28;1.13;;;18.20;54.80;;;;;;5044654;28;20127;-67
2022/07/10 09:09:21;;;;;;;5.95;1.42;;;18.50;54.50;;;;;;5038207;28;20112;-66
2022/07/10 09:11:47;;;;;;;8.55;1.75;;;18.50;53.10;;;;;;5047632;28;20380;-67
2022/07/10 09:14:17;;;;;;;7.30;1.30;;;18.70;54.30;;;;;;5044076;28;20427;-67
2022/07/10 09:16:47;;;;;;;6.45;1.13;;;18.70;52.20;;;;;;5042184;28;20512;-66
2022/07/10 09:19:15;;;;;;;11.98;1.60;;;18.30;54.10;;;;;;5050167;28;20076;-66
2022/07/10 09:21:41;;;;;;;5.68;1.50;;;18.00;55.20;;;;;;5044671;28;20333;-67
2022/07/10 09:24:08;;;;;;;8.23;1.67;;;18.00;55.70;;;;;;5046443;28;20090;-67
2022/07/10 09:26:35;;;;;;;7.05;1.58;;;18.30;55.90;;;;;;5036541;28;20505;-67
2022/07/10 09:29:13;;;;;;;7.20;1.48;;;19.00;55.00;;;;;;5046304;28;20449;-67
2022/07/10 09:32:01;;;;;;;10.48;1.63;;;18.70;53.30;;;;;;5041482;28;20028;-66
2022/07/10 09:34:43;;;;;;;7.28;1.52;;;19.10;54.90;;;;;;5040333;28;20035;-66
2022/07/10 09:37:28;;;;;;;10.20;1.40;;;19.10;54.40;;;;;;5042612;28;20102;-66
2022/07/10 09:40:03;;;;;;;8.77;1.85;;;19.40;53.90;;;;;;5045435;28;20033;-66
2022/07/10 09:42:34;;;;;;;8.10;1.63;;;19.20;55.70;;;;;;5046741;28;20529;-66
2022/07/10 09:45:15;;;;;;;9.50;1.30;;;19.40;55.40;;;;;;5042379;28;20111;-66
2022/07/10 09:48:04;;;;;;;8.18;1.17;;;19.70;52.50;;;;;;5047228;28;20560;-66
2022/07/10 09:50:36;;;;;;;10.73;1.73;;;19.70;54.80;;;;;;5045979;28;20036;-66
2022/07/10 09:53:03;;;;;;;5.15;1.67;;;19.50;57.50;;;;;;5047361;28;20044;-66
2022/07/10 09:55:34;;;;;;;8.70;1.90;;;18.70;56.00;;;;;;5035702;28;20077;-66
2022/07/10 09:58:05;;;;;;;6.97;1.27;;;18.70;55.40;;;;;;5038091;28;20097;-66
2022/07/10 10:00:35;;;;;;;8.70;1.33;;;19.00;56.50;;;;;;5043148;28;20047;-66
2022/07/10 10:03:03;;;;;;;5.85;1.20;;;19.20;55.70;;;;;;5042919;28;20395;-65
2022/07/10 10:05:52;;;;;;;11.10;1.75;;;19.30;55.40;;;;;;5040196;28;20124;-66
2022/07/10 10:08:28;;;;;;;7.45;2.10;;;19.40;55.50;;;;;;5048539;28;20540;-66
2022/07/10 10:10:56;;;;;;;5.53;1.77;;;19.50;56.10;;;;;;5048760;28;20371;-66
2022/07/10 10:13:27;;;;;;;10.02;1.67;;;20.40;54.80;;;;;;5046282;28;20041;-66
2022/07/10 10:15:53;;;;;;;8.85;1.80;;;20.20;52.60;;;;;;5048869;28;20037;-66
2022/07/10 10:18:23;;;;;;;8.95;1.50;;;20.50;55.70;;;;;;5052842;28;20524;-66
2022/07/10 10:20:51;;;;;;;5.27;1.47;;;19.30;56.00;;;;;;5050144;28;20037;-66
2022/07/10 10:23:21;;;;;;;4.28;1.10;;;19.30;58.50;;;;;;5053131;28;20051;-66
2022/07/10 10:25:48;;;;;;;6.43;1.10;;;19.50;55.00;;;;;;5050318;28;20025;-67
2022/07/10 10:28:15;;;;;;;6.47;1.17;;;20.10;55.90;;;;;;5045437;28;20075;-66
2022/07/10 10:30:46;;;;;;;8.40;1.35;;;19.50;55.00;;;;;;5051727;28;20068;-67
2022/07/10 10:33:30;;;;;;;6.90;1.40;;;19.30;55.50;;;;;;5046959;28;20459;-67
2022/07/10 10:35:56;;;;;;;7.95;1.58;;;19.70;56.00;;;;;;5048191;28;20321;-67
2022/07/10 10:38:22;;;;;;;6.40;1.35;;;19.40;55.20;;;;;;5050784;28;20040;-67
2022/07/10 10:40:48;;;;;;;5.97;0.90;;;19.20;57.80;;;;;;5050630;28;20048;-67
2022/07/10 10:43:21;;;;;;;8.52;1.60;;;19.80;57.30;;;;;;5048474;28;20033;-67
2022/07/10 10:45:47;;;;;;;7.50;1.30;;;20.00;56.40;;;;;;5051153;28;20056;-67
2022/07/10 10:48:15;;;;;;;7.43;1.30;;;20.30;56.60;;;;;;5054866;28;20104;-67
2022/07/10 10:50:51;;;;;;;6.95;1.30;;;19.80;56.80;;;;;;5051765;28;20032;-67
2022/07/10 10:53:22;;;;;;;4.35;1.20;;;19.30;58.40;;;;;;5053046;28;20029;-67
2022/07/10 10:56:00;;;;;;;9.85;1.50;;;18.70;59.70;;;;;;5045969;28;20037;-66
2022/07/10 10:58:27;;;;;;;6.97;1.27;;;18.30;61.90;;;;;;5042276;28;20429;-66
2022/07/10 11:01:03;;;;;;;6.93;1.40;;;18.50;63.00;;;;;;5045605;28;20037;-66
2022/07/10 11:03:29;;;;;;;4.65;1.23;;;17.80;65.20;;;;;;5049588;28;20044;-66
2022/07/10 11:05:54;;;;;;;7.38;1.52;;;18.10;64.00;;;;;;5051602;28;20044;-66
2022/07/10 11:08:37;;;;;;;8.02;1.45;;;18.50;63.40;;;;;;5042527;28;20036;-66
2022/07/10 11:11:37;;;;;;;6.25;1.48;;;18.90;62.70;;;;;;5048954;28;20100;-67
2022/07/10 11:14:04;;;;;;;8.13;1.27;;;19.50;61.40;;;;;;5031076;28;20106;-67
2022/07/10 11:16:32;;;;;;;5.60;1.70;;;19.80;60.50;;;;;;5051077;28;20025;-67
2022/07/10 11:18:58;;;;;;;5.55;2.17;;;19.20;62.20;;;;;;5046285;28;20044;-67
2022/07/10 11:21:25;;;;;;;5.85;1.13;;;18.80;65.30;;;;;;5049926;28;20115;-67
2022/07/10 11:24:27;;;;;;;9.68;1.70;;;18.50;62.80;;;;;;5046404;28;20079;-66
2022/07/10 11:27:36;;;;;;;8.15;1.50;;;19.00;61.10;;;;;;5017044;28;20037;-66
2022/07/10 11:30:02;;;;;;;6.50;1.50;;;19.20;60.40;;;;;;5041275;28;20441;-66
2022/07/10 11:32:28;;;;;;;11.48;2.08;;;19.50;59.00;;;;;;5035419;28;20037;-67
2022/07/10 11:34:55;;;;;;;6.03;1.60;;;20.30;56.20;;;;;;5046890;28;20036;-66
2022/07/10 11:37:22;;;;;;;5.57;1.15;;;20.30;57.30;;;;;;5049685;28;20036;-67
2022/07/10 11:39:47;;;;;;;8.55;1.60;;;19.90;56.90;;;;;;5046789;28;20452;-67
2022/07/10 11:42:13;;;;;;;7.50;1.38;;;19.30;56.10;;;;;;5049040;28;20044;-67
2022/07/10 11:44:38;;;;;;;6.70;1.70;;;19.40;55.90;;;;;;5047302;28;20108;-67
2022/07/10 11:47:05;;;;;;;14.80;1.92;;;19.90;55.70;;;;;;5047507;28;20029;-67
2022/07/10 11:49:30;;;;;;;8.35;1.33;;;20.20;55.10;;;;;;5048312;28;20029;-67
2022/07/10 11:52:02;;;;;;;4.93;1.08;;;20.60;54.20;;;;;;5050180;28;20106;-67
2022/07/10 11:54:27;;;;;;;6.30;1.45;;;20.50;55.30;;;;;;5048036;28;20048;-67
2022/07/10 11:56:54;;;;;;;6.18;1.50;;;20.70;53.80;;;;;;5043989;28;20037;-67
2022/07/10 11:59:25;;;;;;;7.43;1.42;;;20.30;56.40;;;;;;5047295;28;20041;-67
2022/07/10 12:01:52;;;;;;;5.45;1.60;;;19.60;57.70;;;;;;5039868;28;20044;-66
2022/07/10 12:04:26;;;;;;;4.80;1.30;;;19.40;58.50;;;;;;5048973;28;20087;-66
2022/07/10 12:06:53;;;;;;;7.45;1.45;;;19.00;58.90;;;;;;5046435;28;20095;-66
2022/07/10 12:09:23;;;;;;;7.32;1.67;;;19.50;59.00;;;;;;5042199;28;20043;-66
2022/07/10 12:12:06;;;;;;;6.43;1.35;;;19.20;59.60;;;;;;5045131;28;20321;-66
2022/07/10 12:14:32;;;;;;;9.63;1.52;;;18.50;61.60;;;;;;5038712;28;20114;-66
2022/07/10 12:16:59;;;;;;;11.52;1.65;;;18.20;64.00;;;;;;5046862;28;20034;-66
2022/07/10 12:19:31;;;;;;;6.05;1.25;;;19.70;61.90;;;;;;5049926;28;20048;-66
2022/07/10 12:21:58;;;;;;;8.88;2.10;;;20.70;58.20;;;;;;5047042;28;20035;-67
2022/07/10 12:24:25;;;;;;;7.65;1.50;;;20.30;58.10;;;;;;5041146;28;20036;-66
2022/07/10 12:26:52;;;;;;;6.15;2.40;;;19.90;59.10;;;;;;5043341;28;20033;-66
2022/07/10 12:29:22;;;;;;;8.27;2.00;;;19.50;61.00;;;;;;5048246;28;20108;-66
2022/07/10 12:31:50;;;;;;;12.15;1.70;;;19.20;62.10;;;;;;5046793;28;20421;-66
2022/07/10 12:34:16;;;;;;;8.63;3.03;;;20.30;58.80;;;;;;5039343;28;20048;-66
2022/07/10 12:36:51;;;;;;;7.85;2.25;;;21.30;55.70;;;;;;5042886;28;20107;-66
2022/07/10 12:39:21;;;;;;;7.15;1.55;;;21.10;54.80;;;;;;5044810;28;20376;-66
2022/07/10 12:42:04;;;;;;;6.53;1.00;;;21.00;55.80;;;;;;5047066;28;20033;-66
2022/07/10 12:44:31;;;;;;;4.05;1.13;;;20.70;55.30;;;;;;5040024;28;20099;-66
2022/07/10 12:47:14;;;;;;;7.80;1.30;;;20.90;54.40;;;;;;5046355;28;20025;-66
2022/07/10 12:50:02;;;;;;;10.98;1.70;;;21.20;52.90;;;;;;5044270;28;20078;-67
2022/07/10 12:52:32;;;;;;;8.38;1.70;;;21.00;54.00;;;;;;5042997;28;20029;-66
2022/07/10 12:55:21;;;;;;;5.30;1.27;;;20.70;53.80;;;;;;5041021;28;20485;-66